sensor_id;sensor_type;location;lat;lon;timestamp;P1;durP1;ratioP1;P2;durP2;ratioP2
17806;SDS011;9027;48.938;9.182;2022-07-24T00:00:53;12.20;;;10.98;;
17806;SDS011;9027;48.938;9.182;2022-07-24T00:02:26;11.40;;;10.30;;
17806;SDS011;9027;48.938;9.182;2022-07-24T00:03:58;11.98;;;10.88;;
17806;SDS011;9027;48.938;9.182;2022-07-24T00:05:30;12.25;;;11.05;;
17806;SDS011;9027;48.938;9.182;2022-07-24T00:07:02;11.95;;;10.77;;
17806;SDS011;9027;48.938;9.182;2022-07-24T00:08:34;13.00;;;10.75;;
17806;SDS011;9027;48.938;9.182;2022-07-24T00:10:08;12.27;;;11.02;;
17806;SDS011;9027;48.938;9.182;2022-07-24T00:11:40;12.60;;;11.35;;
17806;SDS011;9027;48.938;9.182;2022-07-24T00:13:12;12.52;;;11.18;;
17806;SDS011;9027;48.938;9.182;2022-07-24T00:14:45;11.90;;;10.80;;
17806;SDS011;9027;48.938;9.182;2022-07-24T00:16:17;14.20;;;10.98;;
17806;SDS011;9027;48.938;9.182;2022-07-24T00:17:49;12.20;;;10.95;;
17806;SDS011;9027;48.938;9.182;2022-07-24T00:19:20;13.32;;;11.38;;
17806;SDS011;9027;48.938;9.182;2022-07-24T00:20:52;14.35;;;10.90;;
17806;SDS011;9027;48.938;9.182;2022-07-24T00:22:24;13.30;;;10.75;;
17806;SDS011;9027;48.938;9.182;2022-07-24T00:23:56;12.85;;;11.38;;
17806;SDS011;9027;48.938;9.182;2022-07-24T00:25:29;11.18;;;10.10;;
17806;SDS011;9027;48.938;9.182;2022-07-24T00:27:02;16.20;;;11.95;;
17806;SDS011;9027;48.938;9.182;2022-07-24T00:28:34;12.45;;;11.27;;
17806;SDS011;9027;48.938;9.182;2022-07-24T00:30:06;13.18;;;11.93;;
17806;SDS011;9027;48.938;9.182;2022-07-24T00:31:39;13.27;;;11.02;;
17806;SDS011;9027;48.938;9.182;2022-07-24T00:33:11;12.23;;;11.18;;
17806;SDS011;9027;48.938;9.182;2022-07-24T00:34:43;13.32;;;12.05;;
17806;SDS011;9027;48.938;9.182;2022-07-24T00:36:16;12.82;;;11.68;;
17806;SDS011;9027;48.938;9.182;2022-07-24T00:37:48;13.50;;;11.70;;
17806;SDS011;9027;48.938;9.182;2022-07-24T00:39:20;13.02;;;11.75;;
17806;SDS011;9027;48.938;9.182;2022-07-24T00:40:53;12.80;;;11.50;;
17806;SDS011;9027;48.938;9.182;2022-07-24T00:42:25;12.38;;;11.23;;
17806;SDS011;9027;48.938;9.182;2022-07-24T00:43:58;12.93;;;11.73;;
17806;SDS011;9027;48.938;9.182;2022-07-24T00:45:32;12.55;;;11.07;;
17806;SDS011;9027;48.938;9.182;2022-07-24T00:47:04;12.40;;;11.20;;
17806;SDS011;9027;48.938;9.182;2022-07-24T00:48:36;13.75;;;10.93;;
17806;SDS011;9027;48.938;9.182;2022-07-24T00:50:08;12.73;;;11.52;;
17806;SDS011;9027;48.938;9.182;2022-07-24T00:51:42;11.85;;;10.75;;
17806;SDS011;9027;48.938;9.182;2022-07-24T00:53:15;12.48;;;10.95;;
17806;SDS011;9027;48.938;9.182;2022-07-24T00:54:47;11.90;;;10.88;;
17806;SDS011;9027;48.938;9.182;2022-07-24T00:56:21;13.73;;;10.80;;
17806;SDS011;9027;48.938;9.182;2022-07-24T00:57:53;13.20;;;11.38;;
17806;SDS011;9027;48.938;9.182;2022-07-24T00:59:24;12.73;;;11.52;;
17806;SDS011;9027;48.938;9.182;2022-07-24T01:00:56;12.18;;;11.07;;
17806;SDS011;9027;48.938;9.182;2022-07-24T01:02:26;13.75;;;12.30;;
17806;SDS011;9027;48.938;9.182;2022-07-24T01:03:58;13.07;;;11.75;;
17806;SDS011;9027;48.938;9.182;2022-07-24T01:05:30;14.05;;;12.60;;
17806;SDS011;9027;48.938;9.182;2022-07-24T01:07:01;13.88;;;12.00;;
17806;SDS011;9027;48.938;9.182;2022-07-24T01:08:34;13.88;;;12.50;;
17806;SDS011;9027;48.938;9.182;2022-07-24T01:10:08;15.25;;;12.82;;
17806;SDS011;9027;48.938;9.182;2022-07-24T01:11:41;14.55;;;12.90;;
17806;SDS011;9027;48.938;9.182;2022-07-24T01:13:14;15.93;;;13.38;;
17806;SDS011;9027;48.938;9.182;2022-07-24T01:14:45;14.82;;;13.15;;
17806;SDS011;9027;48.938;9.182;2022-07-24T01:16:17;15.98;;;13.52;;
17806;SDS011;9027;48.938;9.182;2022-07-24T01:17:49;13.18;;;11.88;;
17806;SDS011;9027;48.938;9.182;2022-07-24T01:19:21;13.40;;;12.20;;
17806;SDS011;9027;48.938;9.182;2022-07-24T01:20:54;12.80;;;11.50;;
17806;SDS011;9027;48.938;9.182;2022-07-24T01:22:27;13.90;;;12.63;;
17806;SDS011;9027;48.938;9.182;2022-07-24T01:23:59;13.95;;;12.55;;
17806;SDS011;9027;48.938;9.182;2022-07-24T01:25:31;13.63;;;12.23;;
17806;SDS011;9027;48.938;9.182;2022-07-24T01:27:03;16.05;;;12.65;;
17806;SDS011;9027;48.938;9.182;2022-07-24T01:28:35;13.68;;;12.30;;
17806;SDS011;9027;48.938;9.182;2022-07-24T01:30:07;13.25;;;11.95;;
17806;SDS011;9027;48.938;9.182;2022-07-24T01:31:40;13.48;;;12.18;;
17806;SDS011;9027;48.938;9.182;2022-07-24T01:33:12;14.57;;;13.07;;
17806;SDS011;9027;48.938;9.182;2022-07-24T01:34:44;13.55;;;12.25;;
17806;SDS011;9027;48.938;9.182;2022-07-24T01:36:18;15.02;;;13.48;;
17806;SDS011;9027;48.938;9.182;2022-07-24T01:37:50;14.27;;;12.80;;
17806;SDS011;9027;48.938;9.182;2022-07-24T01:39:22;15.23;;;13.60;;
17806;SDS011;9027;48.938;9.182;2022-07-24T01:40:54;13.75;;;12.45;;
17806;SDS011;9027;48.938;9.182;2022-07-24T01:42:26;14.48;;;13.07;;
17806;SDS011;9027;48.938;9.182;2022-07-24T01:43:58;14.00;;;12.70;;
17806;SDS011;9027;48.938;9.182;2022-07-24T01:45:29;15.23;;;12.60;;
17806;SDS011;9027;48.938;9.182;2022-07-24T01:47:01;17.55;;;13.40;;
17806;SDS011;9027;48.938;9.182;2022-07-24T01:48:33;15.02;;;13.13;;
17806;SDS011;9027;48.938;9.182;2022-07-24T01:50:05;13.98;;;12.68;;
17806;SDS011;9027;48.938;9.182;2022-07-24T01:51:39;15.48;;;12.65;;
17806;SDS011;9027;48.938;9.182;2022-07-24T01:53:11;14.10;;;12.68;;
17806;SDS011;9027;48.938;9.182;2022-07-24T01:54:43;13.75;;;12.43;;
17806;SDS011;9027;48.938;9.182;2022-07-24T01:56:15;13.63;;;12.32;;
17806;SDS011;9027;48.938;9.182;2022-07-24T01:57:47;13.85;;;12.45;;
17806;SDS011;9027;48.938;9.182;2022-07-24T01:59:18;13.60;;;12.18;;
17806;SDS011;9027;48.938;9.182;2022-07-24T02:00:51;13.63;;;12.07;;
17806;SDS011;9027;48.938;9.182;2022-07-24T02:02:23;13.52;;;12.13;;
17806;SDS011;9027;48.938;9.182;2022-07-24T02:03:55;13.68;;;12.35;;
17806;SDS011;9027;48.938;9.182;2022-07-24T02:05:27;13.63;;;12.32;;
17806;SDS011;9027;48.938;9.182;2022-07-24T02:07:00;14.15;;;12.65;;
17806;SDS011;9027;48.938;9.182;2022-07-24T02:08:32;13.90;;;12.40;;
17806;SDS011;9027;48.938;9.182;2022-07-24T02:10:04;13.07;;;11.73;;
17806;SDS011;9027;48.938;9.182;2022-07-24T02:11:36;13.48;;;12.18;;
17806;SDS011;9027;48.938;9.182;2022-07-24T02:13:08;14.48;;;12.32;;
17806;SDS011;9027;48.938;9.182;2022-07-24T02:14:40;13.63;;;12.15;;
17806;SDS011;9027;48.938;9.182;2022-07-24T02:16:12;14.02;;;12.45;;
17806;SDS011;9027;48.938;9.182;2022-07-24T02:17:45;13.63;;;12.32;;
17806;SDS011;9027;48.938;9.182;2022-07-24T02:19:17;13.75;;;12.32;;
17806;SDS011;9027;48.938;9.182;2022-07-24T02:20:49;12.50;;;11.23;;
17806;SDS011;9027;48.938;9.182;2022-07-24T02:22:22;13.55;;;12.25;;
17806;SDS011;9027;48.938;9.182;2022-07-24T02:23:54;13.85;;;12.40;;
17806;SDS011;9027;48.938;9.182;2022-07-24T02:25:27;16.55;;;12.93;;
17806;SDS011;9027;48.938;9.182;2022-07-24T02:26:59;14.15;;;12.65;;
17806;SDS011;9027;48.938;9.182;2022-07-24T02:28:30;14.13;;;12.80;;
17806;SDS011;9027;48.938;9.182;2022-07-24T02:30:02;13.82;;;12.30;;
17806;SDS011;9027;48.938;9.182;2022-07-24T02:31:35;12.32;;;11.10;;
17806;SDS011;9027;48.938;9.182;2022-07-24T02:33:07;13.13;;;11.82;;
17806;SDS011;9027;48.938;9.182;2022-07-24T02:34:40;13.45;;;12.07;;
17806;SDS011;9027;48.938;9.182;2022-07-24T02:36:12;13.57;;;12.18;;
17806;SDS011;9027;48.938;9.182;2022-07-24T02:37:45;14.82;;;12.45;;
17806;SDS011;9027;48.938;9.182;2022-07-24T02:39:17;13.85;;;12.35;;
17806;SDS011;9027;48.938;9.182;2022-07-24T02:40:49;13.90;;;12.50;;
17806;SDS011;9027;48.938;9.182;2022-07-24T02:42:21;14.25;;;12.73;;
17806;SDS011;9027;48.938;9.182;2022-07-24T02:43:53;13.65;;;12.20;;
17806;SDS011;9027;48.938;9.182;2022-07-24T02:45:25;14.05;;;12.63;;
17806;SDS011;9027;48.938;9.182;2022-07-24T02:46:57;15.27;;;13.50;;
17806;SDS011;9027;48.938;9.182;2022-07-24T02:48:29;13.63;;;12.43;;
17806;SDS011;9027;48.938;9.182;2022-07-24T02:50:01;14.48;;;12.93;;
17806;SDS011;9027;48.938;9.182;2022-07-24T02:51:33;14.02;;;12.40;;
17806;SDS011;9027;48.938;9.182;2022-07-24T02:53:07;14.35;;;12.95;;
17806;SDS011;9027;48.938;9.182;2022-07-24T02:54:39;14.52;;;13.13;;
17806;SDS011;9027;48.938;9.182;2022-07-24T02:56:10;13.68;;;12.40;;
17806;SDS011;9027;48.938;9.182;2022-07-24T02:57:42;14.02;;;12.73;;
17806;SDS011;9027;48.938;9.182;2022-07-24T02:59:14;15.80;;;13.25;;
17806;SDS011;9027;48.938;9.182;2022-07-24T03:00:46;14.02;;;12.73;;
17806;SDS011;9027;48.938;9.182;2022-07-24T03:02:17;14.93;;;13.30;;
17806;SDS011;9027;48.938;9.182;2022-07-24T03:03:50;14.85;;;13.10;;
17806;SDS011;9027;48.938;9.182;2022-07-24T03:05:22;14.38;;;12.98;;
17806;SDS011;9027;48.938;9.182;2022-07-24T03:06:54;14.43;;;12.98;;
17806;SDS011;9027;48.938;9.182;2022-07-24T03:08:27;15.13;;;13.63;;
17806;SDS011;9027;48.938;9.182;2022-07-24T03:09:59;15.82;;;13.68;;
17806;SDS011;9027;48.938;9.182;2022-07-24T03:11:31;16.98;;;13.90;;
17806;SDS011;9027;48.938;9.182;2022-07-24T03:13:03;15.85;;;14.25;;
17806;SDS011;9027;48.938;9.182;2022-07-24T03:14:35;15.45;;;14.10;;
17806;SDS011;9027;48.938;9.182;2022-07-24T03:16:08;14.77;;;13.30;;
17806;SDS011;9027;48.938;9.182;2022-07-24T03:17:47;14.23;;;12.90;;
17806;SDS011;9027;48.938;9.182;2022-07-24T03:19:20;15.88;;;13.63;;
17806;SDS011;9027;48.938;9.182;2022-07-24T03:20:52;15.45;;;13.80;;
17806;SDS011;9027;48.938;9.182;2022-07-24T03:22:24;13.75;;;12.38;;
17806;SDS011;9027;48.938;9.182;2022-07-24T03:23:57;14.45;;;13.00;;
17806;SDS011;9027;48.938;9.182;2022-07-24T03:25:29;14.13;;;12.75;;
17806;SDS011;9027;48.938;9.182;2022-07-24T03:27:01;13.80;;;12.50;;
17806;SDS011;9027;48.938;9.182;2022-07-24T03:28:32;14.38;;;12.82;;
17806;SDS011;9027;48.938;9.182;2022-07-24T03:30:05;14.02;;;12.68;;
17806;SDS011;9027;48.938;9.182;2022-07-24T03:31:37;13.75;;;12.40;;
17806;SDS011;9027;48.938;9.182;2022-07-24T03:33:09;14.52;;;13.15;;
17806;SDS011;9027;48.938;9.182;2022-07-24T03:34:41;14.02;;;12.63;;
17806;SDS011;9027;48.938;9.182;2022-07-24T03:36:13;14.23;;;12.73;;
17806;SDS011;9027;48.938;9.182;2022-07-24T03:37:45;14.88;;;13.38;;
17806;SDS011;9027;48.938;9.182;2022-07-24T03:39:19;13.48;;;12.25;;
17806;SDS011;9027;48.938;9.182;2022-07-24T03:40:51;14.27;;;12.88;;
17806;SDS011;9027;48.938;9.182;2022-07-24T03:42:23;13.80;;;12.38;;
17806;SDS011;9027;48.938;9.182;2022-07-24T03:43:55;13.77;;;12.40;;
17806;SDS011;9027;48.938;9.182;2022-07-24T03:45:27;14.70;;;13.20;;
17806;SDS011;9027;48.938;9.182;2022-07-24T03:46:59;14.40;;;12.98;;
17806;SDS011;9027;48.938;9.182;2022-07-24T03:48:31;14.75;;;13.35;;
17806;SDS011;9027;48.938;9.182;2022-07-24T03:50:03;14.38;;;12.95;;
17806;SDS011;9027;48.938;9.182;2022-07-24T03:51:35;14.70;;;13.30;;
17806;SDS011;9027;48.938;9.182;2022-07-24T03:53:07;13.90;;;12.07;;
17806;SDS011;9027;48.938;9.182;2022-07-24T03:54:40;14.02;;;12.65;;
17806;SDS011;9027;48.938;9.182;2022-07-24T03:56:12;14.40;;;12.80;;
17806;SDS011;9027;48.938;9.182;2022-07-24T03:57:45;14.70;;;13.13;;
17806;SDS011;9027;48.938;9.182;2022-07-24T03:59:17;13.90;;;12.48;;
17806;SDS011;9027;48.938;9.182;2022-07-24T04:00:48;14.15;;;12.75;;
17806;SDS011;9027;48.938;9.182;2022-07-24T04:02:20;13.73;;;12.32;;
17806;SDS011;9027;48.938;9.182;2022-07-24T04:03:52;13.68;;;11.90;;
17806;SDS011;9027;48.938;9.182;2022-07-24T04:05:23;13.30;;;12.10;;
17806;SDS011;9027;48.938;9.182;2022-07-24T04:06:55;13.80;;;12.20;;
17806;SDS011;9027;48.938;9.182;2022-07-24T04:08:27;13.07;;;11.82;;
17806;SDS011;9027;48.938;9.182;2022-07-24T04:10:00;13.70;;;12.35;;
17806;SDS011;9027;48.938;9.182;2022-07-24T04:11:33;13.50;;;12.10;;
17806;SDS011;9027;48.938;9.182;2022-07-24T04:13:05;13.23;;;11.73;;
17806;SDS011;9027;48.938;9.182;2022-07-24T04:14:37;13.23;;;12.02;;
17806;SDS011;9027;48.938;9.182;2022-07-24T04:16:09;14.35;;;12.13;;
17806;SDS011;9027;48.938;9.182;2022-07-24T04:17:41;13.20;;;11.82;;
17806;SDS011;9027;48.938;9.182;2022-07-24T04:19:13;13.20;;;11.77;;
17806;SDS011;9027;48.938;9.182;2022-07-24T04:20:45;12.95;;;11.65;;
17806;SDS011;9027;48.938;9.182;2022-07-24T04:22:16;13.43;;;12.05;;
17806;SDS011;9027;48.938;9.182;2022-07-24T04:23:48;13.55;;;12.15;;
17806;SDS011;9027;48.938;9.182;2022-07-24T04:25:22;12.73;;;11.45;;
17806;SDS011;9027;48.938;9.182;2022-07-24T04:26:54;12.32;;;11.23;;
17806;SDS011;9027;48.938;9.182;2022-07-24T04:28:26;14.43;;;12.48;;
17806;SDS011;9027;48.938;9.182;2022-07-24T04:29:58;14.95;;;13.55;;
17806;SDS011;9027;48.938;9.182;2022-07-24T04:31:29;13.85;;;12.55;;
17806;SDS011;9027;48.938;9.182;2022-07-24T04:33:01;15.35;;;12.43;;
17806;SDS011;9027;48.938;9.182;2022-07-24T04:34:33;13.93;;;12.63;;
17806;SDS011;9027;48.938;9.182;2022-07-24T04:36:05;14.45;;;13.05;;
17806;SDS011;9027;48.938;9.182;2022-07-24T04:37:37;14.30;;;12.80;;
17806;SDS011;9027;48.938;9.182;2022-07-24T04:39:09;13.98;;;12.57;;
17806;SDS011;9027;48.938;9.182;2022-07-24T04:40:42;16.33;;;14.63;;
17806;SDS011;9027;48.938;9.182;2022-07-24T04:42:14;13.48;;;12.27;;
17806;SDS011;9027;48.938;9.182;2022-07-24T04:43:46;14.35;;;12.90;;
17806;SDS011;9027;48.938;9.182;2022-07-24T04:45:18;14.13;;;12.82;;
17806;SDS011;9027;48.938;9.182;2022-07-24T04:46:50;15.10;;;12.93;;
17806;SDS011;9027;48.938;9.182;2022-07-24T04:48:22;14.05;;;12.52;;
17806;SDS011;9027;48.938;9.182;2022-07-24T04:49:55;16.48;;;12.80;;
17806;SDS011;9027;48.938;9.182;2022-07-24T04:51:27;14.52;;;13.02;;
17806;SDS011;9027;48.938;9.182;2022-07-24T04:52:58;13.90;;;12.40;;
17806;SDS011;9027;48.938;9.182;2022-07-24T04:54:29;14.13;;;12.63;;
17806;SDS011;9027;48.938;9.182;2022-07-24T04:56:03;12.75;;;11.45;;
17806;SDS011;9027;48.938;9.182;2022-07-24T04:57:35;14.13;;;12.40;;
17806;SDS011;9027;48.938;9.182;2022-07-24T04:59:07;12.27;;;11.07;;
17806;SDS011;9027;48.938;9.182;2022-07-24T05:00:39;13.27;;;10.55;;
17806;SDS011;9027;48.938;9.182;2022-07-24T05:02:11;13.18;;;10.65;;
17806;SDS011;9027;48.938;9.182;2022-07-24T05:03:43;10.85;;;9.85;;
17806;SDS011;9027;48.938;9.182;2022-07-24T05:05:15;10.70;;;9.70;;
17806;SDS011;9027;48.938;9.182;2022-07-24T05:06:47;11.23;;;10.20;;
17806;SDS011;9027;48.938;9.182;2022-07-24T05:08:19;11.52;;;10.32;;
17806;SDS011;9027;48.938;9.182;2022-07-24T05:09:51;11.55;;;10.35;;
17806;SDS011;9027;48.938;9.182;2022-07-24T05:11:24;11.35;;;10.35;;
17806;SDS011;9027;48.938;9.182;2022-07-24T05:12:56;12.10;;;10.90;;
17806;SDS011;9027;48.938;9.182;2022-07-24T05:14:28;10.75;;;9.75;;
17806;SDS011;9027;48.938;9.182;2022-07-24T05:16:00;10.63;;;9.63;;
17806;SDS011;9027;48.938;9.182;2022-07-24T05:17:33;10.65;;;9.68;;
17806;SDS011;9027;48.938;9.182;2022-07-24T05:19:06;11.15;;;10.15;;
17806;SDS011;9027;48.938;9.182;2022-07-24T05:20:37;11.60;;;10.40;;
17806;SDS011;9027;48.938;9.182;2022-07-24T05:22:09;10.55;;;9.55;;
17806;SDS011;9027;48.938;9.182;2022-07-24T05:23:42;10.60;;;9.73;;
17806;SDS011;9027;48.938;9.182;2022-07-24T05:25:14;11.38;;;10.32;;
17806;SDS011;9027;48.938;9.182;2022-07-24T05:26:47;11.38;;;10.25;;
17806;SDS011;9027;48.938;9.182;2022-07-24T05:28:19;11.32;;;10.25;;
17806;SDS011;9027;48.938;9.182;2022-07-24T05:29:51;10.73;;;9.73;;
17806;SDS011;9027;48.938;9.182;2022-07-24T05:31:23;13.25;;;11.00;;
17806;SDS011;9027;48.938;9.182;2022-07-24T05:32:55;12.35;;;11.18;;
17806;SDS011;9027;48.938;9.182;2022-07-24T05:34:27;11.57;;;10.38;;
17806;SDS011;9027;48.938;9.182;2022-07-24T05:36:00;13.18;;;11.05;;
17806;SDS011;9027;48.938;9.182;2022-07-24T05:37:31;12.10;;;10.90;;
17806;SDS011;9027;48.938;9.182;2022-07-24T05:39:04;12.20;;;10.82;;
17806;SDS011;9027;48.938;9.182;2022-07-24T05:40:36;12.13;;;11.00;;
17806;SDS011;9027;48.938;9.182;2022-07-24T05:42:09;11.80;;;10.63;;
17806;SDS011;9027;48.938;9.182;2022-07-24T05:43:41;11.43;;;10.32;;
17806;SDS011;9027;48.938;9.182;2022-07-24T05:45:13;12.10;;;10.90;;
17806;SDS011;9027;48.938;9.182;2022-07-24T05:46:45;13.70;;;10.95;;
17806;SDS011;9027;48.938;9.182;2022-07-24T05:48:17;11.65;;;10.45;;
17806;SDS011;9027;48.938;9.182;2022-07-24T05:49:49;12.27;;;10.68;;
17806;SDS011;9027;48.938;9.182;2022-07-24T05:51:21;12.00;;;10.80;;
17806;SDS011;9027;48.938;9.182;2022-07-24T05:52:53;11.75;;;10.65;;
17806;SDS011;9027;48.938;9.182;2022-07-24T05:54:25;12.23;;;11.13;;
17806;SDS011;9027;48.938;9.182;2022-07-24T05:55:58;12.50;;;11.15;;
17806;SDS011;9027;48.938;9.182;2022-07-24T05:57:31;12.43;;;11.32;;
17806;SDS011;9027;48.938;9.182;2022-07-24T05:59:03;11.90;;;10.80;;
17806;SDS011;9027;48.938;9.182;2022-07-24T06:00:35;11.65;;;10.65;;
17806;SDS011;9027;48.938;9.182;2022-07-24T06:02:07;12.88;;;11.23;;
17806;SDS011;9027;48.938;9.182;2022-07-24T06:03:39;13.20;;;11.90;;
17806;SDS011;9027;48.938;9.182;2022-07-24T06:05:11;12.85;;;11.55;;
17806;SDS011;9027;48.938;9.182;2022-07-24T06:06:43;15.85;;;11.45;;
17806;SDS011;9027;48.938;9.182;2022-07-24T06:08:15;13.30;;;11.68;;
17806;SDS011;9027;48.938;9.182;2022-07-24T06:09:47;12.43;;;11.27;;
17806;SDS011;9027;48.938;9.182;2022-07-24T06:11:19;13.30;;;11.90;;
17806;SDS011;9027;48.938;9.182;2022-07-24T06:12:54;13.30;;;11.95;;
17806;SDS011;9027;48.938;9.182;2022-07-24T06:14:26;12.43;;;11.13;;
17806;SDS011;9027;48.938;9.182;2022-07-24T06:15:58;12.30;;;11.10;;
17806;SDS011;9027;48.938;9.182;2022-07-24T06:17:30;12.52;;;11.13;;
17806;SDS011;9027;48.938;9.182;2022-07-24T06:19:02;12.98;;;11.63;;
17806;SDS011;9027;48.938;9.182;2022-07-24T06:20:34;11.93;;;10.77;;
17806;SDS011;9027;48.938;9.182;2022-07-24T06:22:05;12.80;;;11.50;;
17806;SDS011;9027;48.938;9.182;2022-07-24T06:23:37;12.57;;;11.27;;
17806;SDS011;9027;48.938;9.182;2022-07-24T06:25:10;13.20;;;11.80;;
17806;SDS011;9027;48.938;9.182;2022-07-24T06:26:42;13.55;;;11.45;;
17806;SDS011;9027;48.938;9.182;2022-07-24T06:28:16;13.25;;;11.77;;
17806;SDS011;9027;48.938;9.182;2022-07-24T06:29:48;14.05;;;11.73;;
17806;SDS011;9027;48.938;9.182;2022-07-24T06:31:20;12.65;;;11.45;;
17806;SDS011;9027;48.938;9.182;2022-07-24T06:32:52;12.10;;;10.88;;
17806;SDS011;9027;48.938;9.182;2022-07-24T06:34:25;12.95;;;11.63;;
17806;SDS011;9027;48.938;9.182;2022-07-24T06:35:57;13.88;;;12.25;;
17806;SDS011;9027;48.938;9.182;2022-07-24T06:37:30;12.45;;;11.20;;
17806;SDS011;9027;48.938;9.182;2022-07-24T06:39:02;12.13;;;10.35;;
17806;SDS011;9027;48.938;9.182;2022-07-24T06:40:34;12.20;;;10.82;;
17806;SDS011;9027;48.938;9.182;2022-07-24T06:42:07;12.52;;;11.23;;
17806;SDS011;9027;48.938;9.182;2022-07-24T06:43:41;12.23;;;10.98;;
17806;SDS011;9027;48.938;9.182;2022-07-24T06:45:13;12.55;;;11.35;;
17806;SDS011;9027;48.938;9.182;2022-07-24T06:46:45;12.63;;;10.82;;
17806;SDS011;9027;48.938;9.182;2022-07-24T06:48:17;12.18;;;10.10;;
17806;SDS011;9027;48.938;9.182;2022-07-24T06:49:49;11.95;;;10.75;;
17806;SDS011;9027;48.938;9.182;2022-07-24T06:51:21;12.15;;;10.90;;
17806;SDS011;9027;48.938;9.182;2022-07-24T06:52:53;11.13;;;10.02;;
17806;SDS011;9027;48.938;9.182;2022-07-24T06:54:25;11.70;;;10.60;;
17806;SDS011;9027;48.938;9.182;2022-07-24T06:55:56;10.38;;;9.48;;
17806;SDS011;9027;48.938;9.182;2022-07-24T06:57:28;11.25;;;9.80;;
17806;SDS011;9027;48.938;9.182;2022-07-24T06:59:01;11.00;;;9.73;;
17806;SDS011;9027;48.938;9.182;2022-07-24T07:00:34;11.05;;;9.85;;
17806;SDS011;9027;48.938;9.182;2022-07-24T07:02:06;11.38;;;10.10;;
17806;SDS011;9027;48.938;9.182;2022-07-24T07:03:38;10.25;;;9.30;;
17806;SDS011;9027;48.938;9.182;2022-07-24T07:05:10;10.65;;;9.60;;
17806;SDS011;9027;48.938;9.182;2022-07-24T07:06:42;10.43;;;9.45;;
17806;SDS011;9027;48.938;9.182;2022-07-24T07:08:13;10.20;;;9.23;;
17806;SDS011;9027;48.938;9.182;2022-07-24T07:09:45;10.60;;;9.60;;
17806;SDS011;9027;48.938;9.182;2022-07-24T07:11:17;9.90;;;9.00;;
17806;SDS011;9027;48.938;9.182;2022-07-24T07:12:49;11.88;;;9.80;;
17806;SDS011;9027;48.938;9.182;2022-07-24T07:14:23;10.85;;;9.73;;
17806;SDS011;9027;48.938;9.182;2022-07-24T07:15:55;10.65;;;9.73;;
17806;SDS011;9027;48.938;9.182;2022-07-24T07:17:26;11.13;;;9.98;;
17806;SDS011;9027;48.938;9.182;2022-07-24T07:18:58;11.25;;;9.73;;
17806;SDS011;9027;48.938;9.182;2022-07-24T07:20:30;10.35;;;9.38;;
17806;SDS011;9027;48.938;9.182;2022-07-24T07:22:03;11.07;;;9.82;;
17806;SDS011;9027;48.938;9.182;2022-07-24T07:23:33;10.10;;;9.20;;
17806;SDS011;9027;48.938;9.182;2022-07-24T07:25:06;9.48;;;8.57;;
17806;SDS011;9027;48.938;9.182;2022-07-24T07:26:38;9.82;;;8.93;;
17806;SDS011;9027;48.938;9.182;2022-07-24T07:28:10;9.27;;;8.13;;
17806;SDS011;9027;48.938;9.182;2022-07-24T07:29:44;9.75;;;8.85;;
17806;SDS011;9027;48.938;9.182;2022-07-24T07:31:16;9.85;;;8.95;;
17806;SDS011;9027;48.938;9.182;2022-07-24T07:32:48;8.80;;;8.00;;
17806;SDS011;9027;48.938;9.182;2022-07-24T07:34:20;10.13;;;9.13;;
17806;SDS011;9027;48.938;9.182;2022-07-24T07:35:52;9.95;;;8.93;;
17806;SDS011;9027;48.938;9.182;2022-07-24T07:37:25;10.50;;;9.13;;
17806;SDS011;9027;48.938;9.182;2022-07-24T07:38:57;10.82;;;8.90;;
17806;SDS011;9027;48.938;9.182;2022-07-24T07:40:29;9.55;;;8.73;;
17806;SDS011;9027;48.938;9.182;2022-07-24T07:42:01;10.77;;;9.27;;
17806;SDS011;9027;48.938;9.182;2022-07-24T07:43:33;9.45;;;8.55;;
17806;SDS011;9027;48.938;9.182;2022-07-24T07:45:07;10.27;;;8.45;;
17806;SDS011;9027;48.938;9.182;2022-07-24T07:46:39;9.45;;;8.50;;
17806;SDS011;9027;48.938;9.182;2022-07-24T07:48:12;11.25;;;8.25;;
17806;SDS011;9027;48.938;9.182;2022-07-24T07:49:43;8.95;;;8.05;;
17806;SDS011;9027;48.938;9.182;2022-07-24T07:51:15;9.43;;;8.48;;
17806;SDS011;9027;48.938;9.182;2022-07-24T07:52:47;8.90;;;8.10;;
17806;SDS011;9027;48.938;9.182;2022-07-24T07:54:19;9.88;;;8.98;;
17806;SDS011;9027;48.938;9.182;2022-07-24T07:55:51;9.35;;;8.55;;
17806;SDS011;9027;48.938;9.182;2022-07-24T07:57:23;8.65;;;7.88;;
17806;SDS011;9027;48.938;9.182;2022-07-24T07:58:55;9.93;;;8.25;;
17806;SDS011;9027;48.938;9.182;2022-07-24T08:00:29;9.48;;;8.02;;
17806;SDS011;9027;48.938;9.182;2022-07-24T08:02:01;8.85;;;7.90;;
17806;SDS011;9027;48.938;9.182;2022-07-24T08:03:32;8.88;;;7.97;;
17806;SDS011;9027;48.938;9.182;2022-07-24T08:05:05;9.13;;;8.23;;
17806;SDS011;9027;48.938;9.182;2022-07-24T08:06:38;9.38;;;7.70;;
17806;SDS011;9027;48.938;9.182;2022-07-24T08:08:10;8.55;;;7.85;;
17806;SDS011;9027;48.938;9.182;2022-07-24T08:09:42;7.55;;;6.93;;
17806;SDS011;9027;48.938;9.182;2022-07-24T08:11:15;8.02;;;7.32;;
17806;SDS011;9027;48.938;9.182;2022-07-24T08:12:47;7.93;;;6.88;;
17806;SDS011;9027;48.938;9.182;2022-07-24T08:14:19;7.30;;;6.60;;
17806;SDS011;9027;48.938;9.182;2022-07-24T08:15:52;8.13;;;6.00;;
17806;SDS011;9027;48.938;9.182;2022-07-24T08:17:24;7.32;;;6.43;;
17806;SDS011;9027;48.938;9.182;2022-07-24T08:18:56;7.50;;;6.40;;
17806;SDS011;9027;48.938;9.182;2022-07-24T08:20:28;8.05;;;6.82;;
17806;SDS011;9027;48.938;9.182;2022-07-24T08:22:00;8.48;;;6.55;;
17806;SDS011;9027;48.938;9.182;2022-07-24T08:23:32;7.70;;;6.38;;
17806;SDS011;9027;48.938;9.182;2022-07-24T08:25:04;7.82;;;6.85;;
17806;SDS011;9027;48.938;9.182;2022-07-24T08:26:37;8.55;;;7.53;;
17806;SDS011;9027;48.938;9.182;2022-07-24T08:28:09;7.55;;;6.90;;
17806;SDS011;9027;48.938;9.182;2022-07-24T08:29:41;8.27;;;7.43;;
17806;SDS011;9027;48.938;9.182;2022-07-24T08:31:14;7.93;;;7.10;;
17806;SDS011;9027;48.938;9.182;2022-07-24T08:32:46;8.93;;;7.13;;
17806;SDS011;9027;48.938;9.182;2022-07-24T08:34:18;8.43;;;7.63;;
17806;SDS011;9027;48.938;9.182;2022-07-24T08:35:50;8.18;;;7.28;;
17806;SDS011;9027;48.938;9.182;2022-07-24T08:37:22;6.85;;;6.22;;
17806;SDS011;9027;48.938;9.182;2022-07-24T08:38:54;8.15;;;7.00;;
17806;SDS011;9027;48.938;9.182;2022-07-24T08:40:26;7.10;;;6.55;;
17806;SDS011;9027;48.938;9.182;2022-07-24T08:42:06;8.15;;;7.07;;
17806;SDS011;9027;48.938;9.182;2022-07-24T08:43:39;8.25;;;7.22;;
17806;SDS011;9027;48.938;9.182;2022-07-24T08:45:11;8.68;;;6.82;;
17806;SDS011;9027;48.938;9.182;2022-07-24T08:46:44;7.72;;;7.03;;
17806;SDS011;9027;48.938;9.182;2022-07-24T08:48:16;7.97;;;6.55;;
17806;SDS011;9027;48.938;9.182;2022-07-24T08:49:52;7.35;;;6.75;;
17806;SDS011;9027;48.938;9.182;2022-07-24T08:51:28;8.77;;;7.43;;
17806;SDS011;9027;48.938;9.182;2022-07-24T08:53:03;8.95;;;6.97;;
17806;SDS011;9027;48.938;9.182;2022-07-24T08:54:36;8.65;;;7.40;;
17806;SDS011;9027;48.938;9.182;2022-07-24T08:56:09;7.95;;;7.22;;
17806;SDS011;9027;48.938;9.182;2022-07-24T08:57:41;7.43;;;6.72;;
17806;SDS011;9027;48.938;9.182;2022-07-24T08:59:17;10.45;;;7.30;;
17806;SDS011;9027;48.938;9.182;2022-07-24T09:00:50;6.75;;;6.15;;
17806;SDS011;9027;48.938;9.182;2022-07-24T09:02:30;6.93;;;6.32;;
17806;SDS011;9027;48.938;9.182;2022-07-24T09:04:02;7.93;;;7.13;;
17806;SDS011;9027;48.938;9.182;2022-07-24T09:05:51;7.63;;;6.93;;
17806;SDS011;9027;48.938;9.182;2022-07-24T09:07:25;7.43;;;6.78;;
17806;SDS011;9027;48.938;9.182;2022-07-24T09:09:00;9.02;;;6.82;;
17806;SDS011;9027;48.938;9.182;2022-07-24T09:10:34;8.20;;;6.72;;
17806;SDS011;9027;48.938;9.182;2022-07-24T09:12:07;6.90;;;6.30;;